sensor_id;sensor_type;location;lat;lon;timestamp;temperature;humidity
12841;DHT22;6487;48.626;12.486;2024-02-23T00:02:08;9.20;99.90
12841;DHT22;6487;48.626;12.486;2024-02-23T00:04:36;9.20;99.90
12841;DHT22;6487;48.626;12.486;2024-02-23T00:07:05;9.30;99.90
12841;DHT22;6487;48.626;12.486;2024-02-23T00:09:34;9.40;99.90
12841;DHT22;6487;48.626;12.486;2024-02-23T00:12:04;9.40;99.90
12841;DHT22;6487;48.626;12.486;2024-02-23T00:14:36;9.40;99.90
12841;DHT22;6487;48.626;12.486;2024-02-23T00:17:05;9.30;99.90
12841;DHT22;6487;48.626;12.486;2024-02-23T00:19:34;9.30;99.90
12841;DHT22;6487;48.626;12.486;2024-02-23T00:22:02;9.20;99.90
12841;DHT22;6487;48.626;12.486;2024-02-23T00:24:34;9.20;99.90
12841;DHT22;6487;48.626;12.486;2024-02-23T00:27:07;9.20;99.90
12841;DHT22;6487;48.626;12.486;2024-02-23T00:29:36;9.10;99.90
12841;DHT22;6487;48.626;12.486;2024-02-23T00:32:05;9.10;99.90
12841;DHT22;6487;48.626;12.486;2024-02-23T00:34:37;9.10;99.90
12841;DHT22;6487;48.626;12.486;2024-02-23T00:37:08;9.20;99.90
12841;DHT22;6487;48.626;12.486;2024-02-23T00:39:36;9.10;99.90
12841;DHT22;6487;48.626;12.486;2024-02-23T00:42:05;9.20;99.90
12841;DHT22;6487;48.626;12.486;2024-02-23T00:44:35;9.20;99.90
12841;DHT22;6487;48.626;12.486;2024-02-23T00:47:05;9.10;99.90
12841;DHT22;6487;48.626;12.486;2024-02-23T00:49:33;9.10;99.90
12841;DHT22;6487;48.626;12.486;2024-02-23T00:52:02;9.10;99.90
12841;DHT22;6487;48.626;12.486;2024-02-23T00:54:31;9.10;99.90
12841;DHT22;6487;48.626;12.486;2024-02-23T00:57:02;9.10;99.90
12841;DHT22;6487;48.626;12.486;2024-02-23T00:59:34;9.20;99.90
12841;DHT22;6487;48.626;12.486;2024-02-23T01:02:10;9.10;99.90
12841;DHT22;6487;48.626;12.486;2024-02-23T01:04:38;9.10;99.90
12841;DHT22;6487;48.626;12.486;2024-02-23T01:07:07;9.00;99.90
12841;DHT22;6487;48.626;12.486;2024-02-23T01:09:35;9.10;99.90
12841;DHT22;6487;48.626;12.486;2024-02-23T01:12:04;9.20;99.90
12841;DHT22;6487;48.626;12.486;2024-02-23T01:14:34;9.10;99.90
12841;DHT22;6487;48.626;12.486;2024-02-23T01:17:03;9.20;99.90
12841;DHT22;6487;48.626;12.486;2024-02-23T01:19:31;9.20;99.90
12841;DHT22;6487;48.626;12.486;2024-02-23T01:21:59;9.20;99.90
12841;DHT22;6487;48.626;12.486;2024-02-23T01:24:28;9.20;99.90
12841;DHT22;6487;48.626;12.486;2024-02-23T01:26:57;9.10;99.90
12841;DHT22;6487;48.626;12.486;2024-02-23T01:29:26;9.20;99.90
12841;DHT22;6487;48.626;12.486;2024-02-23T01:31:56;9.10;99.90
12841;DHT22;6487;48.626;12.486;2024-02-23T01:34:25;9.20;99.90
12841;DHT22;6487;48.626;12.486;2024-02-23T01:36:54;9.10;99.90
12841;DHT22;6487;48.626;12.486;2024-02-23T01:39:22;9.10;99.90
12841;DHT22;6487;48.626;12.486;2024-02-23T01:41:51;9.00;99.90
12841;DHT22;6487;48.626;12.486;2024-02-23T01:44:21;9.10;99.90
12841;DHT22;6487;48.626;12.486;2024-02-23T01:46:50;9.00;99.90
12841;DHT22;6487;48.626;12.486;2024-02-23T01:49:20;9.00;99.90
12841;DHT22;6487;48.626;12.486;2024-02-23T01:51:49;9.00;99.90
12841;DHT22;6487;48.626;12.486;2024-02-23T01:54:18;9.00;99.90
12841;DHT22;6487;48.626;12.486;2024-02-23T01:56:46;8.90;99.90
12841;DHT22;6487;48.626;12.486;2024-02-23T01:59:18;8.90;99.90
12841;DHT22;6487;48.626;12.486;2024-02-23T02:01:47;8.90;99.90
12841;DHT22;6487;48.626;12.486;2024-02-23T02:04:15;8.70;99.90
12841;DHT22;6487;48.626;12.486;2024-02-23T02:06:46;8.80;99.90
12841;DHT22;6487;48.626;12.486;2024-02-23T02:09:15;8.80;99.90
12841;DHT22;6487;48.626;12.486;2024-02-23T02:11:47;8.80;99.90
12841;DHT22;6487;48.626;12.486;2024-02-23T02:14:15;8.80;99.90
12841;DHT22;6487;48.626;12.486;2024-02-23T02:16:44;8.80;99.90
12841;DHT22;6487;48.626;12.486;2024-02-23T02:19:16;8.90;99.90
12841;DHT22;6487;48.626;12.486;2024-02-23T02:21:46;8.70;99.90
12841;DHT22;6487;48.626;12.486;2024-02-23T02:24:15;8.70;99.90
12841;DHT22;6487;48.626;12.486;2024-02-23T02:26:43;8.70;99.90
12841;DHT22;6487;48.626;12.486;2024-02-23T02:29:14;8.80;99.90
12841;DHT22;6487;48.626;12.486;2024-02-23T02:31:42;8.70;99.90
12841;DHT22;6487;48.626;12.486;2024-02-23T02:34:11;8.70;99.90
12841;DHT22;6487;48.626;12.486;2024-02-23T02:36:41;8.70;99.90
12841;DHT22;6487;48.626;12.486;2024-02-23T02:39:11;8.70;99.90
12841;DHT22;6487;48.626;12.486;2024-02-23T02:41:39;8.60;99.90
12841;DHT22;6487;48.626;12.486;2024-02-23T02:44:08;8.70;99.90
12841;DHT22;6487;48.626;12.486;2024-02-23T02:46:36;8.60;99.90
12841;DHT22;6487;48.626;12.486;2024-02-23T02:49:08;8.60;99.90
12841;DHT22;6487;48.626;12.486;2024-02-23T02:51:36;8.40;99.90
12841;DHT22;6487;48.626;12.486;2024-02-23T02:54:05;8.20;99.90
12841;DHT22;6487;48.626;12.486;2024-02-23T02:56:35;8.00;99.90
12841;DHT22;6487;48.626;12.486;2024-02-23T02:59:06;8.10;99.90
12841;DHT22;6487;48.626;12.486;2024-02-23T03:01:35;7.80;99.90
12841;DHT22;6487;48.626;12.486;2024-02-23T03:04:03;7.80;99.90
12841;DHT22;6487;48.626;12.486;2024-02-23T03:06:32;7.80;99.90
12841;DHT22;6487;48.626;12.486;2024-02-23T03:09:00;7.70;99.90
12841;DHT22;6487;48.626;12.486;2024-02-23T03:11:29;7.70;99.90
12841;DHT22;6487;48.626;12.486;2024-02-23T03:14:06;7.70;99.90
12841;DHT22;6487;48.626;12.486;2024-02-23T03:16:35;7.60;99.90
12841;DHT22;6487;48.626;12.486;2024-02-23T03:19:09;7.50;99.90
12841;DHT22;6487;48.626;12.486;2024-02-23T03:21:37;7.50;99.90
12841;DHT22;6487;48.626;12.486;2024-02-23T03:24:06;7.30;99.90
12841;DHT22;6487;48.626;12.486;2024-02-23T03:26:34;7.50;99.90
12841;DHT22;6487;48.626;12.486;2024-02-23T03:29:03;7.60;99.90
12841;DHT22;6487;48.626;12.486;2024-02-23T03:31:33;7.40;99.90
12841;DHT22;6487;48.626;12.486;2024-02-23T03:34:03;7.30;99.90
12841;DHT22;6487;48.626;12.486;2024-02-23T03:36:31;7.30;99.90
12841;DHT22;6487;48.626;12.486;2024-02-23T03:39:00;7.40;99.90
12841;DHT22;6487;48.626;12.486;2024-02-23T03:41:29;7.40;99.90
12841;DHT22;6487;48.626;12.486;2024-02-23T03:43:57;7.50;99.90
12841;DHT22;6487;48.626;12.486;2024-02-23T03:46:25;7.30;99.90
12841;DHT22;6487;48.626;12.486;2024-02-23T03:48:55;7.50;99.90
12841;DHT22;6487;48.626;12.486;2024-02-23T03:51:24;7.40;99.90
12841;DHT22;6487;48.626;12.486;2024-02-23T03:53:52;7.40;99.90
12841;DHT22;6487;48.626;12.486;2024-02-23T03:56:21;7.40;99.90
12841;DHT22;6487;48.626;12.486;2024-02-23T03:58:49;7.40;99.90
12841;DHT22;6487;48.626;12.486;2024-02-23T04:01:18;7.30;99.90
12841;DHT22;6487;48.626;12.486;2024-02-23T04:03:46;7.20;99.90
12841;DHT22;6487;48.626;12.486;2024-02-23T04:06:16;7.20;99.90
12841;DHT22;6487;48.626;12.486;2024-02-23T04:08:44;7.30;99.90
12841;DHT22;6487;48.626;12.486;2024-02-23T04:11:16;7.20;99.90
12841;DHT22;6487;48.626;12.486;2024-02-23T04:13:45;7.20;99.90
12841;DHT22;6487;48.626;12.486;2024-02-23T04:16:22;7.00;99.90
12841;DHT22;6487;48.626;12.486;2024-02-23T04:18:52;7.10;99.90
12841;DHT22;6487;48.626;12.486;2024-02-23T04:21:22;7.10;99.90
12841;DHT22;6487;48.626;12.486;2024-02-23T04:23:51;7.20;99.90
12841;DHT22;6487;48.626;12.486;2024-02-23T04:26:19;7.30;99.90
12841;DHT22;6487;48.626;12.486;2024-02-23T04:28:48;7.30;99.90
12841;DHT22;6487;48.626;12.486;2024-02-23T04:31:16;7.30;99.90
12841;DHT22;6487;48.626;12.486;2024-02-23T04:33:44;7.30;99.90
12841;DHT22;6487;48.626;12.486;2024-02-23T04:36:13;7.30;99.90
12841;DHT22;6487;48.626;12.486;2024-02-23T04:38:42;7.20;99.90
12841;DHT22;6487;48.626;12.486;2024-02-23T04:41:14;7.20;99.90
12841;DHT22;6487;48.626;12.486;2024-02-23T04:43:42;7.30;99.90
12841;DHT22;6487;48.626;12.486;2024-02-23T04:46:11;7.30;99.90
12841;DHT22;6487;48.626;12.486;2024-02-23T04:48:40;7.30;99.90
12841;DHT22;6487;48.626;12.486;2024-02-23T04:51:08;7.30;99.90
12841;DHT22;6487;48.626;12.486;2024-02-23T04:53:37;7.30;99.90
12841;DHT22;6487;48.626;12.486;2024-02-23T04:56:07;7.40;99.90
12841;DHT22;6487;48.626;12.486;2024-02-23T04:58:35;7.30;99.90
12841;DHT22;6487;48.626;12.486;2024-02-23T05:01:04;7.30;99.90
12841;DHT22;6487;48.626;12.486;2024-02-23T05:03:33;7.30;99.90
12841;DHT22;6487;48.626;12.486;2024-02-23T05:06:02;7.30;99.90
12841;DHT22;6487;48.626;12.486;2024-02-23T05:08:31;7.30;99.90
12841;DHT22;6487;48.626;12.486;2024-02-23T05:11:00;7.20;99.90
12841;DHT22;6487;48.626;12.486;2024-02-23T05:13:30;7.20;99.90
12841;DHT22;6487;48.626;12.486;2024-02-23T05:15:58;7.30;99.90
12841;DHT22;6487;48.626;12.486;2024-02-23T05:18:26;7.30;99.90
12841;DHT22;6487;48.626;12.486;2024-02-23T05:20:55;7.30;99.90
12841;DHT22;6487;48.626;12.486;2024-02-23T05:23:23;7.30;99.90
12841;DHT22;6487;48.626;12.486;2024-02-23T05:25:52;7.30;99.90
12841;DHT22;6487;48.626;12.486;2024-02-23T05:28:20;7.20;99.90
12841;DHT22;6487;48.626;12.486;2024-02-23T05:30:50;7.20;99.90
12841;DHT22;6487;48.626;12.486;2024-02-23T05:33:19;7.20;99.90
12841;DHT22;6487;48.626;12.486;2024-02-23T05:35:50;7.20;99.90
12841;DHT22;6487;48.626;12.486;2024-02-23T05:38:20;7.10;99.90
12841;DHT22;6487;48.626;12.486;2024-02-23T05:40:48;7.00;99.90
12841;DHT22;6487;48.626;12.486;2024-02-23T05:43:17;6.90;99.90
12841;DHT22;6487;48.626;12.486;2024-02-23T05:45:45;7.00;99.90
12841;DHT22;6487;48.626;12.486;2024-02-23T05:48:15;6.90;99.90
12841;DHT22;6487;48.626;12.486;2024-02-23T05:50:47;6.80;99.90
12841;DHT22;6487;48.626;12.486;2024-02-23T05:53:15;6.90;99.90
12841;DHT22;6487;48.626;12.486;2024-02-23T05:55:43;6.90;99.90
12841;DHT22;6487;48.626;12.486;2024-02-23T05:58:12;6.80;99.90
12841;DHT22;6487;48.626;12.486;2024-02-23T06:00:43;6.70;99.90
12841;DHT22;6487;48.626;12.486;2024-02-23T06:03:15;6.70;99.90
12841;DHT22;6487;48.626;12.486;2024-02-23T06:05:45;6.60;99.90
12841;DHT22;6487;48.626;12.486;2024-02-23T06:08:13;6.60;99.90
12841;DHT22;6487;48.626;12.486;2024-02-23T06:10:42;6.60;99.90
12841;DHT22;6487;48.626;12.486;2024-02-23T06:13:11;6.60;99.90
12841;DHT22;6487;48.626;12.486;2024-02-23T06:15:46;6.60;99.90
12841;DHT22;6487;48.626;12.486;2024-02-23T06:18:16;6.70;99.90
12841;DHT22;6487;48.626;12.486;2024-02-23T06:20:44;6.60;99.90
12841;DHT22;6487;48.626;12.486;2024-02-23T06:23:13;6.60;99.90
12841;DHT22;6487;48.626;12.486;2024-02-23T06:25:42;6.50;99.90
12841;DHT22;6487;48.626;12.486;2024-02-23T06:28:13;6.50;99.90
12841;DHT22;6487;48.626;12.486;2024-02-23T06:30:41;6.50;99.90
12841;DHT22;6487;48.626;12.486;2024-02-23T06:33:10;6.50;99.90
12841;DHT22;6487;48.626;12.486;2024-02-23T06:35:40;6.40;99.90
12841;DHT22;6487;48.626;12.486;2024-02-23T06:38:08;6.50;99.90
12841;DHT22;6487;48.626;12.486;2024-02-23T06:40:37;6.50;99.90
12841;DHT22;6487;48.626;12.486;2024-02-23T06:43:17;6.50;99.90
12841;DHT22;6487;48.626;12.486;2024-02-23T06:45:49;6.50;99.90
12841;DHT22;6487;48.626;12.486;2024-02-23T06:48:17;6.40;99.90
12841;DHT22;6487;48.626;12.486;2024-02-23T06:50:47;6.40;99.90
12841;DHT22;6487;48.626;12.486;2024-02-23T06:53:16;6.40;99.90
12841;DHT22;6487;48.626;12.486;2024-02-23T06:55:45;6.50;99.90
12841;DHT22;6487;48.626;12.486;2024-02-23T06:58:13;6.40;99.90
12841;DHT22;6487;48.626;12.486;2024-02-23T07:00:43;6.40;99.90
12841;DHT22;6487;48.626;12.486;2024-02-23T07:03:11;6.40;99.90
12841;DHT22;6487;48.626;12.486;2024-02-23T07:05:41;6.30;99.90
12841;DHT22;6487;48.626;12.486;2024-02-23T07:08:11;6.40;99.90
12841;DHT22;6487;48.626;12.486;2024-02-23T07:10:40;6.40;99.90
12841;DHT22;6487;48.626;12.486;2024-02-23T07:13:09;6.40;99.90
12841;DHT22;6487;48.626;12.486;2024-02-23T07:15:37;6.40;99.90
12841;DHT22;6487;48.626;12.486;2024-02-23T07:18:06;6.50;99.90
12841;DHT22;6487;48.626;12.486;2024-02-23T07:20:35;6.40;99.90
12841;DHT22;6487;48.626;12.486;2024-02-23T07:23:04;6.40;99.90
12841;DHT22;6487;48.626;12.486;2024-02-23T07:25:34;6.40;99.90
12841;DHT22;6487;48.626;12.486;2024-02-23T07:28:03;6.40;99.90
12841;DHT22;6487;48.626;12.486;2024-02-23T07:30:32;6.40;99.90
12841;DHT22;6487;48.626;12.486;2024-02-23T07:33:04;6.50;99.90
12841;DHT22;6487;48.626;12.486;2024-02-23T07:35:33;6.50;99.90
12841;DHT22;6487;48.626;12.486;2024-02-23T07:38:02;6.50;99.90
12841;DHT22;6487;48.626;12.486;2024-02-23T07:40:30;6.50;99.90
12841;DHT22;6487;48.626;12.486;2024-02-23T07:43:00;6.50;99.90
12841;DHT22;6487;48.626;12.486;2024-02-23T07:45:29;6.50;99.90
12841;DHT22;6487;48.626;12.486;2024-02-23T07:47:58;6.60;99.90
12841;DHT22;6487;48.626;12.486;2024-02-23T07:50:26;6.60;99.90
12841;DHT22;6487;48.626;12.486;2024-02-23T07:52:55;6.60;99.90
12841;DHT22;6487;48.626;12.486;2024-02-23T07:55:23;6.60;99.90
12841;DHT22;6487;48.626;12.486;2024-02-23T07:57:51;6.70;99.90
12841;DHT22;6487;48.626;12.486;2024-02-23T08:00:25;6.80;99.90
12841;DHT22;6487;48.626;12.486;2024-02-23T08:02:54;6.80;99.90
12841;DHT22;6487;48.626;12.486;2024-02-23T08:05:23;6.80;99.90
12841;DHT22;6487;48.626;12.486;2024-02-23T08:07:52;6.80;99.90
12841;DHT22;6487;48.626;12.486;2024-02-23T08:10:21;6.80;99.90
12841;DHT22;6487;48.626;12.486;2024-02-23T08:12:50;6.80;99.90
12841;DHT22;6487;48.626;12.486;2024-02-23T08:15:18;6.80;99.90
12841;DHT22;6487;48.626;12.486;2024-02-23T08:17:48;6.90;99.90
12841;DHT22;6487;48.626;12.486;2024-02-23T08:20:18;6.90;99.90
12841;DHT22;6487;48.626;12.486;2024-02-23T08:22:46;6.90;99.90
12841;DHT22;6487;48.626;12.486;2024-02-23T08:25:15;6.90;99.90
12841;DHT22;6487;48.626;12.486;2024-02-23T08:27:43;6.90;99.90
12841;DHT22;6487;48.626;12.486;2024-02-23T08:30:13;7.00;99.90
12841;DHT22;6487;48.626;12.486;2024-02-23T08:32:42;7.00;99.90
12841;DHT22;6487;48.626;12.486;2024-02-23T08:35:13;7.00;99.90
12841;DHT22;6487;48.626;12.486;2024-02-23T08:37:42;7.00;99.90
12841;DHT22;6487;48.626;12.486;2024-02-23T08:40:12;7.10;99.90
12841;DHT22;6487;48.626;12.486;2024-02-23T08:42:40;7.10;99.90
12841;DHT22;6487;48.626;12.486;2024-02-23T08:45:09;7.10;99.90
12841;DHT22;6487;48.626;12.486;2024-02-23T08:47:39;7.20;99.90
12841;DHT22;6487;48.626;12.486;2024-02-23T08:50:10;7.20;99.90
12841;DHT22;6487;48.626;12.486;2024-02-23T08:52:40;7.30;99.90
12841;DHT22;6487;48.626;12.486;2024-02-23T08:55:08;7.40;99.90
12841;DHT22;6487;48.626;12.486;2024-02-23T08:57:45;7.50;99.90
12841;DHT22;6487;48.626;12.486;2024-02-23T09:00:14;7.60;99.90
12841;DHT22;6487;48.626;12.486;2024-02-23T09:02:44;7.70;99.90
12841;DHT22;6487;48.626;12.486;2024-02-23T09:05:13;7.70;99.90
12841;DHT22;6487;48.626;12.486;2024-02-23T09:07:43;7.90;99.90
12841;DHT22;6487;48.626;12.486;2024-02-23T09:10:12;7.90;99.90
12841;DHT22;6487;48.626;12.486;2024-02-23T09:12:41;8.00;99.90
12841;DHT22;6487;48.626;12.486;2024-02-23T09:15:09;8.00;99.90
12841;DHT22;6487;48.626;12.486;2024-02-23T09:17:40;8.00;99.90
12841;DHT22;6487;48.626;12.486;2024-02-23T09:20:10;8.00;99.90
12841;DHT22;6487;48.626;12.486;2024-02-23T09:22:39;8.10;99.90
12841;DHT22;6487;48.626;12.486;2024-02-23T09:25:09;8.10;99.90
12841;DHT22;6487;48.626;12.486;2024-02-23T09:27:38;7.80;99.90
12841;DHT22;6487;48.626;12.486;2024-02-23T09:30:12;7.90;99.90
12841;DHT22;6487;48.626;12.486;2024-02-23T09:32:41;7.90;99.90
12841;DHT22;6487;48.626;12.486;2024-02-23T09:35:11;7.90;99.90
12841;DHT22;6487;48.626;12.486;2024-02-23T09:37:40;8.00;99.90
12841;DHT22;6487;48.626;12.486;2024-02-23T09:40:11;8.00;99.90
12841;DHT22;6487;48.626;12.486;2024-02-23T09:42:42;8.10;99.90
12841;DHT22;6487;48.626;12.486;2024-02-23T09:45:12;8.10;99.90
12841;DHT22;6487;48.626;12.486;2024-02-23T09:47:41;8.10;99.90
12841;DHT22;6487;48.626;12.486;2024-02-23T09:50:12;8.20;99.90
12841;DHT22;6487;48.626;12.486;2024-02-23T09:52:41;8.20;99.90
12841;DHT22;6487;48.626;12.486;2024-02-23T09:55:11;8.20;99.90
12841;DHT22;6487;48.626;12.486;2024-02-23T09:57:40;8.30;99.90
12841;DHT22;6487;48.626;12.486;2024-02-23T10:00:11;8.40;99.90
12841;DHT22;6487;48.626;12.486;2024-02-23T10:02:40;8.30;99.90
12841;DHT22;6487;48.626;12.486;2024-02-23T10:05:10;8.30;99.90
12841;DHT22;6487;48.626;12.486;2024-02-23T10:07:40;8.30;99.90
12841;DHT22;6487;48.626;12.486;2024-02-23T10:10:11;8.40;99.90
12841;DHT22;6487;48.626;12.486;2024-02-23T10:12:42;8.40;99.90
12841;DHT22;6487;48.626;12.486;2024-02-23T10:15:10;8.40;99.90
12841;DHT22;6487;48.626;12.486;2024-02-23T10:17:39;8.40;99.90
12841;DHT22;6487;48.626;12.486;2024-02-23T10:20:08;8.40;99.90
12841;DHT22;6487;48.626;12.486;2024-02-23T10:22:37;8.40;99.90
12841;DHT22;6487;48.626;12.486;2024-02-23T10:25:07;8.50;99.90
12841;DHT22;6487;48.626;12.486;2024-02-23T10:27:37;8.50;99.90
12841;DHT22;6487;48.626;12.486;2024-02-23T10:30:06;8.40;99.90
12841;DHT22;6487;48.626;12.486;2024-02-23T10:32:39;8.50;99.90
12841;DHT22;6487;48.626;12.486;2024-02-23T10:35:10;8.40;99.90
12841;DHT22;6487;48.626;12.486;2024-02-23T10:37:41;8.40;99.90
12841;DHT22;6487;48.626;12.486;2024-02-23T10:40:12;8.20;99.90
12841;DHT22;6487;48.626;12.486;2024-02-23T10:42:44;8.10;99.90
12841;DHT22;6487;48.626;12.486;2024-02-23T10:45:18;7.80;99.90
12841;DHT22;6487;48.626;12.486;2024-02-23T10:47:48;7.50;99.90
12841;DHT22;6487;48.626;12.486;2024-02-23T10:50:17;7.40;99.90
12841;DHT22;6487;48.626;12.486;2024-02-23T10:52:47;7.30;99.90
12841;DHT22;6487;48.626;12.486;2024-02-23T10:55:15;7.30;99.90
12841;DHT22;6487;48.626;12.486;2024-02-23T10:57:45;7.20;99.90
12841;DHT22;6487;48.626;12.486;2024-02-23T11:00:16;6.80;99.90
12841;DHT22;6487;48.626;12.486;2024-02-23T11:02:49;6.70;99.90
12841;DHT22;6487;48.626;12.486;2024-02-23T11:05:19;6.60;99.90
12841;DHT22;6487;48.626;12.486;2024-02-23T11:07:49;6.50;99.90
12841;DHT22;6487;48.626;12.486;2024-02-23T11:10:18;6.60;99.90
12841;DHT22;6487;48.626;12.486;2024-02-23T11:12:58;6.40;99.90
12841;DHT22;6487;48.626;12.486;2024-02-23T11:15:29;6.20;99.90
12841;DHT22;6487;48.626;12.486;2024-02-23T11:18:00;6.00;99.90
12841;DHT22;6487;48.626;12.486;2024-02-23T11:20:35;5.90;99.90
12841;DHT22;6487;48.626;12.486;2024-02-23T11:23:13;5.90;99.90
12841;DHT22;6487;48.626;12.486;2024-02-23T11:25:42;5.80;99.90
12841;DHT22;6487;48.626;12.486;2024-02-23T11:28:24;5.80;99.90
12841;DHT22;6487;48.626;12.486;2024-02-23T11:30:53;5.80;99.90
12841;DHT22;6487;48.626;12.486;2024-02-23T11:33:28;5.90;99.90
12841;DHT22;6487;48.626;12.486;2024-02-23T11:36:06;5.90;99.90
12841;DHT22;6487;48.626;12.486;2024-02-23T11:38:36;6.00;99.90
12841;DHT22;6487;48.626;12.486;2024-02-23T11:41:07;6.00;99.90
12841;DHT22;6487;48.626;12.486;2024-02-23T11:43:37;6.00;99.90
12841;DHT22;6487;48.626;12.486;2024-02-23T11:46:07;6.20;99.90
12841;DHT22;6487;48.626;12.486;2024-02-23T11:48:35;6.00;99.90
12841;DHT22;6487;48.626;12.486;2024-02-23T11:51:04;6.00;99.90
12841;DHT22;6487;48.626;12.486;2024-02-23T11:53:32;6.10;99.90
12841;DHT22;6487;48.626;12.486;2024-02-23T11:56:07;6.10;99.90
12841;DHT22;6487;48.626;12.486;2024-02-23T11:58:43;6.10;99.90
12841;DHT22;6487;48.626;12.486;2024-02-23T12:01:11;6.20;99.90
12841;DHT22;6487;48.626;12.486;2024-02-23T12:03:41;6.20;99.90
12841;DHT22;6487;48.626;12.486;2024-02-23T12:06:14;6.20;99.90
12841;DHT22;6487;48.626;12.486;2024-02-23T12:08:44;6.10;99.90
12841;DHT22;6487;48.626;12.486;2024-02-23T12:11:14;6.00;99.90
12841;DHT22;6487;48.626;12.486;2024-02-23T12:13:44;6.10;99.90
12841;DHT22;6487;48.626;12.486;2024-02-23T12:16:14;6.10;99.90
12841;DHT22;6487;48.626;12.486;2024-02-23T12:18:43;6.20;99.90
12841;DHT22;6487;48.626;12.486;2024-02-23T12:21:11;6.20;99.90
12841;DHT22;6487;48.626;12.486;2024-02-23T12:23:41;6.00;99.90
12841;DHT22;6487;48.626;12.486;2024-02-23T12:26:12;6.20;99.90
12841;DHT22;6487;48.626;12.486;2024-02-23T12:28:42;6.20;99.90
12841;DHT22;6487;48.626;12.486;2024-02-23T12:31:12;6.10;99.90
12841;DHT22;6487;48.626;12.486;2024-02-23T12:33:41;6.10;99.90
12841;DHT22;6487;48.626;12.486;2024-02-23T12:36:15;6.20;99.90
12841;DHT22;6487;48.626;12.486;2024-02-23T12:38:44;6.30;99.90
12841;DHT22;6487;48.626;12.486;2024-02-23T12:41:13;6.20;99.90
12841;DHT22;6487;48.626;12.486;2024-02-23T12:43:41;6.30;99.90
12841;DHT22;6487;48.626;12.486;2024-02-23T12:46:15;6.40;99.90
12841;DHT22;6487;48.626;12.486;2024-02-23T12:48:44;6.50;99.90
12841;DHT22;6487;48.626;12.486;2024-02-23T12:51:12;6.60;99.90
12841;DHT22;6487;48.626;12.486;2024-02-23T12:53:41;6.50;99.90
12841;DHT22;6487;48.626;12.486;2024-02-23T12:56:11;6.30;99.90
12841;DHT22;6487;48.626;12.486;2024-02-23T12:58:44;6.40;99.90
12841;DHT22;6487;48.626;12.486;2024-02-23T13:01:12;6.50;99.90
12841;DHT22;6487;48.626;12.486;2024-02-23T13:03:43;6.40;99.90
12841;DHT22;6487;48.626;12.486;2024-02-23T13:06:12;6.40;99.90
12841;DHT22;6487;48.626;12.486;2024-02-23T13:08:40;6.50;99.90
12841;DHT22;6487;48.626;12.486;2024-02-23T13:11:10;6.30;99.90
12841;DHT22;6487;48.626;12.486;2024-02-23T13:13:38;6.40;99.90
12841;DHT22;6487;48.626;12.486;2024-02-23T13:16:10;6.50;99.90
12841;DHT22;6487;48.626;12.486;2024-02-23T13:18:43;6.60;99.90
12841;DHT22;6487;48.626;12.486;2024-02-23T13:21:13;6.40;99.90
12841;DHT22;6487;48.626;12.486;2024-02-23T13:23:42;6.40;99.90
12841;DHT22;6487;48.626;12.486;2024-02-23T13:26:11;6.30;99.90
12841;DHT22;6487;48.626;12.486;2024-02-23T13:28:42;6.20;99.90
12841;DHT22;6487;48.626;12.486;2024-02-23T13:31:11;6.10;99.90
12841;DHT22;6487;48.626;12.486;2024-02-23T13:33:40;6.20;99.90
12841;DHT22;6487;48.626;12.486;2024-02-23T13:36:10;6.40;99.90
12841;DHT22;6487;48.626;12.486;2024-02-23T13:38:39;6.60;99.90
12841;DHT22;6487;48.626;12.486;2024-02-23T13:41:09;6.60;99.90
12841;DHT22;6487;48.626;12.486;2024-02-23T13:43:38;6.60;99.90
12841;DHT22;6487;48.626;12.486;2024-02-23T13:46:07;6.70;99.90
12841;DHT22;6487;48.626;12.486;2024-02-23T13:48:35;6.60;99.90
12841;DHT22;6487;48.626;12.486;2024-02-23T13:51:04;6.70;99.90
12841;DHT22;6487;48.626;12.486;2024-02-23T13:53:35;6.50;99.90
12841;DHT22;6487;48.626;12.486;2024-02-23T13:56:06;6.40;99.90
12841;DHT22;6487;48.626;12.486;2024-02-23T13:58:34;6.40;99.90
12841;DHT22;6487;48.626;12.486;2024-02-23T14:01:03;6.30;99.90
12841;DHT22;6487;48.626;12.486;2024-02-23T14:03:32;6.50;99.90
12841;DHT22;6487;48.626;12.486;2024-02-23T14:06:01;6.50;99.90
12841;DHT22;6487;48.626;12.486;2024-02-23T14:08:30;6.40;99.90
12841;DHT22;6487;48.626;12.486;2024-02-23T14:11:02;6.50;99.90
12841;DHT22;6487;48.626;12.486;2024-02-23T14:13:33;6.60;99.90
12841;DHT22;6487;48.626;12.486;2024-02-23T14:16:01;6.50;99.90
12841;DHT22;6487;48.626;12.486;2024-02-23T14:18:30;6.50;99.90
12841;DHT22;6487;48.626;12.486;2024-02-23T14:21:04;6.50;99.90
12841;DHT22;6487;48.626;12.486;2024-02-23T14:23:33;6.70;99.90
12841;DHT22;6487;48.626;12.486;2024-02-23T14:26:03;6.70;99.90
12841;DHT22;6487;48.626;12.486;2024-02-23T14:28:32;6.70;99.90
12841;DHT22;6487;48.626;12.486;2024-02-23T14:31:00;6.70;99.90
12841;DHT22;6487;48.626;12.486;2024-02-23T14:33:28;6.80;99.90
12841;DHT22;6487;48.626;12.486;2024-02-23T14:35:57;6.70;99.90
12841;DHT22;6487;48.626;12.486;2024-02-23T14:38:25;6.70;99.90
12841;DHT22;6487;48.626;12.486;2024-02-23T14:40:54;6.70;99.90
12841;DHT22;6487;48.626;12.486;2024-02-23T14:43:23;6.60;99.90
12841;DHT22;6487;48.626;12.486;2024-02-23T14:45:52;6.60;99.90
12841;DHT22;6487;48.626;12.486;2024-02-23T14:48:20;6.60;99.90
12841;DHT22;6487;48.626;12.486;2024-02-23T14:50:49;6.60;99.90
12841;DHT22;6487;48.626;12.486;2024-02-23T14:53:18;6.50;99.90
12841;DHT22;6487;48.626;12.486;2024-02-23T14:55:47;6.40;99.90
12841;DHT22;6487;48.626;12.486;2024-02-23T14:58:15;6.40;99.90
12841;DHT22;6487;48.626;12.486;2024-02-23T15:00:45;6.40;99.90
12841;DHT22;6487;48.626;12.486;2024-02-23T15:03:14;6.30;99.90
12841;DHT22;6487;48.626;12.486;2024-02-23T15:05:42;6.30;99.90
12841;DHT22;6487;48.626;12.486;2024-02-23T15:08:11;6.30;99.90
12841;DHT22;6487;48.626;12.486;2024-02-23T15:10:39;6.30;99.90
12841;DHT22;6487;48.626;12.486;2024-02-23T15:13:08;6.20;99.90
12841;DHT22;6487;48.626;12.486;2024-02-23T15:15:37;6.30;99.90
12841;DHT22;6487;48.626;12.486;2024-02-23T15:18:09;6.30;99.90
12841;DHT22;6487;48.626;12.486;2024-02-23T15:20:37;6.10;99.90
12841;DHT22;6487;48.626;12.486;2024-02-23T15:23:06;6.10;99.90
12841;DHT22;6487;48.626;12.486;2024-02-23T15:25:34;6.20;99.90
12841;DHT22;6487;48.626;12.486;2024-02-23T15:28:10;6.10;99.90
12841;DHT22;6487;48.626;12.486;2024-02-23T15:30:39;6.10;99.90
12841;DHT22;6487;48.626;12.486;2024-02-23T15:33:08;6.10;99.90
12841;DHT22;6487;48.626;12.486;2024-02-23T15:35:37;6.10;99.90
12841;DHT22;6487;48.626;12.486;2024-02-23T15:38:06;6.20;99.90
12841;DHT22;6487;48.626;12.486;2024-02-23T15:40:34;6.30;99.90
12841;DHT22;6487;48.626;12.486;2024-02-23T15:43:03;6.30;99.90
12841;DHT22;6487;48.626;12.486;2024-02-23T15:45:31;6.30;99.90
12841;DHT22;6487;48.626;12.486;2024-02-23T15:48:00;6.30;99.90
12841;DHT22;6487;48.626;12.486;2024-02-23T15:50:33;6.10;99.90
12841;DHT22;6487;48.626;12.486;2024-02-23T15:53:21;6.20;99.90
12841;DHT22;6487;48.626;12.486;2024-02-23T15:55:50;6.20;99.90
12841;DHT22;6487;48.626;12.486;2024-02-23T15:58:18;6.20;99.90
12841;DHT22;6487;48.626;12.486;2024-02-23T16:00:47;6.40;99.90